sensor_id;sensor_type;location;lat;lon;timestamp;pressure;altitude;pressure_sealevel;temperature;humidity
54854;BME280;40747;49.480;8.658;2023-05-12T00:01:14;100083.16;;;13.40;100.00
54854;BME280;40747;49.480;8.658;2023-05-12T00:03:40;100073.25;;;13.24;100.00
54854;BME280;40747;49.480;8.658;2023-05-12T00:06:05;100079.06;;;13.14;100.00
54854;BME280;40747;49.480;8.658;2023-05-12T00:08:31;100080.41;;;13.22;100.00
54854;BME280;40747;49.480;8.658;2023-05-12T00:10:57;100074.47;;;13.38;100.00
54854;BME280;40747;49.480;8.658;2023-05-12T00:13:22;100071.81;;;13.38;100.00
54854;BME280;40747;49.480;8.658;2023-05-12T00:15:49;100074.81;;;13.49;100.00
54854;BME280;40747;49.480;8.658;2023-05-12T00:18:14;100074.50;;;13.55;100.00
54854;BME280;40747;49.480;8.658;2023-05-12T00:20:40;100073.44;;;13.59;100.00
54854;BME280;40747;49.480;8.658;2023-05-12T00:23:05;100064.44;;;13.64;100.00
54854;BME280;40747;49.480;8.658;2023-05-12T00:25:30;100071.06;;;13.72;100.00
54854;BME280;40747;49.480;8.658;2023-05-12T00:27:56;100076.22;;;13.75;100.00
54854;BME280;40747;49.480;8.658;2023-05-12T00:30:21;100069.16;;;13.76;100.00
54854;BME280;40747;49.480;8.658;2023-05-12T00:32:46;100070.84;;;13.77;100.00
54854;BME280;40747;49.480;8.658;2023-05-12T00:35:11;100062.06;;;13.76;100.00
54854;BME280;40747;49.480;8.658;2023-05-12T00:37:37;100063.63;;;13.81;100.00
54854;BME280;40747;49.480;8.658;2023-05-12T00:40:02;100064.53;;;13.80;100.00
54854;BME280;40747;49.480;8.658;2023-05-12T00:42:29;100067.13;;;13.81;100.00
54854;BME280;40747;49.480;8.658;2023-05-12T00:44:54;100059.50;;;13.75;100.00
54854;BME280;40747;49.480;8.658;2023-05-12T00:47:19;100056.19;;;13.70;100.00
54854;BME280;40747;49.480;8.658;2023-05-12T00:49:45;100059.78;;;13.69;100.00
54854;BME280;40747;49.480;8.658;2023-05-12T00:52:11;100063.22;;;13.71;100.00
54854;BME280;40747;49.480;8.658;2023-05-12T00:54:37;100061.13;;;13.77;100.00
54854;BME280;40747;49.480;8.658;2023-05-12T00:57:03;100058.59;;;13.74;100.00
54854;BME280;40747;49.480;8.658;2023-05-12T00:59:28;100059.63;;;13.72;100.00
54854;BME280;40747;49.480;8.658;2023-05-12T01:01:54;100055.13;;;13.74;100.00
54854;BME280;40747;49.480;8.658;2023-05-12T01:04:20;100059.25;;;13.60;100.00
54854;BME280;40747;49.480;8.658;2023-05-12T01:06:58;100053.75;;;13.65;100.00
54854;BME280;40747;49.480;8.658;2023-05-12T01:09:27;100024.72;;;13.25;100.00
54854;BME280;40747;49.480;8.658;2023-05-12T01:11:52;100052.47;;;13.36;100.00
54854;BME280;40747;49.480;8.658;2023-05-12T01:14:18;100048.78;;;13.40;100.00
54854;BME280;40747;49.480;8.658;2023-05-12T01:16:48;100046.63;;;13.48;100.00
54854;BME280;40747;49.480;8.658;2023-05-12T01:19:33;100045.47;;;13.54;100.00
54854;BME280;40747;49.480;8.658;2023-05-12T01:22:02;100041.25;;;13.50;100.00
54854;BME280;40747;49.480;8.658;2023-05-12T01:24:29;100036.81;;;13.50;100.00
54854;BME280;40747;49.480;8.658;2023-05-12T01:26:57;100044.47;;;13.56;100.00
54854;BME280;40747;49.480;8.658;2023-05-12T01:29:23;100045.28;;;13.58;100.00
54854;BME280;40747;49.480;8.658;2023-05-12T01:31:49;100051.06;;;13.48;100.00
54854;BME280;40747;49.480;8.658;2023-05-12T01:34:15;100049.19;;;13.50;100.00
54854;BME280;40747;49.480;8.658;2023-05-12T01:36:42;100042.28;;;13.47;100.00
54854;BME280;40747;49.480;8.658;2023-05-12T01:39:08;100044.34;;;13.40;100.00
54854;BME280;40747;49.480;8.658;2023-05-12T01:41:33;100058.34;;;13.42;100.00
54854;BME280;40747;49.480;8.658;2023-05-12T01:43:58;100041.63;;;13.42;100.00
54854;BME280;40747;49.480;8.658;2023-05-12T01:46:24;100048.97;;;13.35;100.00
54854;BME280;40747;49.480;8.658;2023-05-12T01:48:49;100047.16;;;13.36;100.00
54854;BME280;40747;49.480;8.658;2023-05-12T01:51:15;100051.41;;;13.40;100.00
54854;BME280;40747;49.480;8.658;2023-05-12T01:53:43;100046.47;;;13.51;100.00
54854;BME280;40747;49.480;8.658;2023-05-12T01:56:09;100048.78;;;13.40;100.00
54854;BME280;40747;49.480;8.658;2023-05-12T01:58:34;100054.66;;;13.26;100.00
54854;BME280;40747;49.480;8.658;2023-05-12T02:00:59;100055.53;;;13.07;100.00
54854;BME280;40747;49.480;8.658;2023-05-12T02:03:25;100056.44;;;13.06;100.00
54854;BME280;40747;49.480;8.658;2023-05-12T02:05:50;100056.78;;;12.99;100.00
54854;BME280;40747;49.480;8.658;2023-05-12T02:08:15;100046.06;;;12.83;100.00
54854;BME280;40747;49.480;8.658;2023-05-12T02:10:41;100049.06;;;12.94;100.00
54854;BME280;40747;49.480;8.658;2023-05-12T02:13:06;100053.72;;;13.08;100.00
54854;BME280;40747;49.480;8.658;2023-05-12T02:15:31;100058.97;;;13.09;100.00
54854;BME280;40747;49.480;8.658;2023-05-12T02:17:56;100052.16;;;13.04;100.00
54854;BME280;40747;49.480;8.658;2023-05-12T02:20:22;100051.59;;;13.16;100.00
54854;BME280;40747;49.480;8.658;2023-05-12T02:22:48;100049.72;;;13.18;100.00
54854;BME280;40747;49.480;8.658;2023-05-12T02:25:13;100044.09;;;13.26;100.00
54854;BME280;40747;49.480;8.658;2023-05-12T02:27:38;100052.91;;;13.26;100.00
54854;BME280;40747;49.480;8.658;2023-05-12T02:30:04;100055.63;;;13.25;100.00
54854;BME280;40747;49.480;8.658;2023-05-12T02:32:30;100045.16;;;13.22;100.00
54854;BME280;40747;49.480;8.658;2023-05-12T02:34:55;100059.34;;;13.40;100.00
54854;BME280;40747;49.480;8.658;2023-05-12T02:37:21;100050.50;;;13.41;100.00
54854;BME280;40747;49.480;8.658;2023-05-12T02:39:46;100052.84;;;13.47;100.00
54854;BME280;40747;49.480;8.658;2023-05-12T02:42:11;100052.13;;;13.43;100.00
54854;BME280;40747;49.480;8.658;2023-05-12T02:44:36;100052.69;;;13.50;100.00
54854;BME280;40747;49.480;8.658;2023-05-12T02:47:02;100045.56;;;13.52;100.00
54854;BME280;40747;49.480;8.658;2023-05-12T02:49:28;100047.19;;;13.55;100.00
54854;BME280;40747;49.480;8.658;2023-05-12T02:51:53;100039.97;;;13.58;100.00
54854;BME280;40747;49.480;8.658;2023-05-12T02:54:19;100043.47;;;13.59;100.00
54854;BME280;40747;49.480;8.658;2023-05-12T02:56:45;100039.97;;;13.58;100.00
54854;BME280;40747;49.480;8.658;2023-05-12T02:59:10;100043.00;;;13.51;100.00
54854;BME280;40747;49.480;8.658;2023-05-12T03:01:36;100034.16;;;13.31;100.00
54854;BME280;40747;49.480;8.658;2023-05-12T03:04:01;100052.94;;;13.46;100.00
54854;BME280;40747;49.480;8.658;2023-05-12T03:06:26;100048.50;;;13.46;100.00
54854;BME280;40747;49.480;8.658;2023-05-12T03:08:52;100049.91;;;13.34;100.00
54854;BME280;40747;49.480;8.658;2023-05-12T03:11:19;100046.16;;;13.19;100.00
54854;BME280;40747;49.480;8.658;2023-05-12T03:13:45;100051.44;;;13.19;100.00
54854;BME280;40747;49.480;8.658;2023-05-12T03:16:11;100052.03;;;13.07;100.00
54854;BME280;40747;49.480;8.658;2023-05-12T03:18:36;100049.09;;;13.13;100.00
54854;BME280;40747;49.480;8.658;2023-05-12T03:21:01;100045.16;;;13.22;100.00
54854;BME280;40747;49.480;8.658;2023-05-12T03:23:27;100047.59;;;13.26;100.00
54854;BME280;40747;49.480;8.658;2023-05-12T03:25:53;100044.69;;;13.33;100.00
54854;BME280;40747;49.480;8.658;2023-05-12T03:28:18;100048.09;;;13.35;100.00
54854;BME280;40747;49.480;8.658;2023-05-12T03:30:43;100043.69;;;13.35;100.00
54854;BME280;40747;49.480;8.658;2023-05-12T03:33:08;100038.44;;;13.34;100.00
54854;BME280;40747;49.480;8.658;2023-05-12T03:35:34;100048.78;;;13.40;100.00
54854;BME280;40747;49.480;8.658;2023-05-12T03:37:59;100044.06;;;13.47;100.00
54854;BME280;40747;49.480;8.658;2023-05-12T03:40:24;100043.13;;;13.48;100.00
54854;BME280;40747;49.480;8.658;2023-05-12T03:42:49;100048.41;;;13.48;100.00
54854;BME280;40747;49.480;8.658;2023-05-12T03:45:15;100052.13;;;13.43;100.00
54854;BME280;40747;49.480;8.658;2023-05-12T03:47:40;100052.06;;;13.45;100.00
54854;BME280;40747;49.480;8.658;2023-05-12T03:50:06;100015.59;;;13.33;100.00
54854;BME280;40747;49.480;8.658;2023-05-12T03:52:32;100046.72;;;13.47;100.00
54854;BME280;40747;49.480;8.658;2023-05-12T03:54:57;100047.75;;;13.42;100.00
54854;BME280;40747;49.480;8.658;2023-05-12T03:57:22;100053.28;;;13.38;100.00
54854;BME280;40747;49.480;8.658;2023-05-12T03:59:48;100051.75;;;13.32;100.00
54854;BME280;40747;49.480;8.658;2023-05-12T04:02:13;100046.03;;;13.22;100.00
54854;BME280;40747;49.480;8.658;2023-05-12T04:04:38;100045.16;;;13.03;100.00
54854;BME280;40747;49.480;8.658;2023-05-12T04:07:04;100059.97;;;12.86;100.00
54854;BME280;40747;49.480;8.658;2023-05-12T04:09:32;100050.69;;;13.17;100.00
54854;BME280;40747;49.480;8.658;2023-05-12T04:11:57;100046.16;;;13.19;100.00
54854;BME280;40747;49.480;8.658;2023-05-12T04:14:23;100047.44;;;13.30;100.00
54854;BME280;40747;49.480;8.658;2023-05-12T04:16:48;100050.03;;;13.31;100.00
54854;BME280;40747;49.480;8.658;2023-05-12T04:19:13;100055.03;;;13.18;100.00
54854;BME280;40747;49.480;8.658;2023-05-12T04:21:39;100052.50;;;12.96;100.00
54854;BME280;40747;49.480;8.658;2023-05-12T04:24:04;100054.75;;;12.85;100.00
54854;BME280;40747;49.480;8.658;2023-05-12T04:26:30;100052.94;;;13.06;100.00
54854;BME280;40747;49.480;8.658;2023-05-12T04:28:55;100057.53;;;13.21;100.00
54854;BME280;40747;49.480;8.658;2023-05-12T04:31:20;100051.81;;;13.31;100.00
54854;BME280;40747;49.480;8.658;2023-05-12T04:33:46;100052.47;;;13.36;100.00
54854;BME280;40747;49.480;8.658;2023-05-12T04:36:11;100063.50;;;13.46;100.00
54854;BME280;40747;49.480;8.658;2023-05-12T04:38:38;100055.34;;;13.50;100.00
54854;BME280;40747;49.480;8.658;2023-05-12T04:41:04;100061.88;;;13.43;100.00
54854;BME280;40747;49.480;8.658;2023-05-12T04:43:30;100014.72;;;13.13;100.00
54854;BME280;40747;49.480;8.658;2023-05-12T04:45:56;100057.22;;;13.48;100.00
54854;BME280;40747;49.480;8.658;2023-05-12T04:48:21;100065.38;;;13.43;100.00
54854;BME280;40747;49.480;8.658;2023-05-12T04:50:47;100063.28;;;13.50;100.00
54854;BME280;40747;49.480;8.658;2023-05-12T04:53:14;100067.66;;;13.51;100.00
54854;BME280;40747;49.480;8.658;2023-05-12T04:55:39;100056.50;;;13.44;100.00
54854;BME280;40747;49.480;8.658;2023-05-12T04:58:05;100073.56;;;13.56;100.00
54854;BME280;40747;49.480;8.658;2023-05-12T05:00:30;100067.38;;;13.57;100.00
54854;BME280;40747;49.480;8.658;2023-05-12T05:02:55;100066.34;;;13.60;100.00
54854;BME280;40747;49.480;8.658;2023-05-12T05:05:20;100078.66;;;13.61;100.00
54854;BME280;40747;49.480;8.658;2023-05-12T05:07:46;100078.88;;;13.56;100.00
54854;BME280;40747;49.480;8.658;2023-05-12T05:10:11;100076.16;;;13.58;100.00
54854;BME280;40747;49.480;8.658;2023-05-12T05:12:37;100070.66;;;13.63;100.00
54854;BME280;40747;49.480;8.658;2023-05-12T05:15:03;100072.94;;;13.51;100.00
54854;BME280;40747;49.480;8.658;2023-05-12T05:17:28;100080.59;;;13.38;100.00
54854;BME280;40747;49.480;8.658;2023-05-12T05:19:53;100079.84;;;13.35;100.00
54854;BME280;40747;49.480;8.658;2023-05-12T05:22:19;100082.00;;;13.26;100.00
54854;BME280;40747;49.480;8.658;2023-05-12T05:24:44;100079.63;;;13.20;100.00
54854;BME280;40747;49.480;8.658;2023-05-12T05:27:09;100085.34;;;13.30;100.00
54854;BME280;40747;49.480;8.658;2023-05-12T05:29:35;100093.38;;;13.08;100.00
54854;BME280;40747;49.480;8.658;2023-05-12T05:32:00;100085.63;;;13.24;100.00
54854;BME280;40747;49.480;8.658;2023-05-12T05:34:25;100085.97;;;13.37;100.00
54854;BME280;40747;49.480;8.658;2023-05-12T05:36:50;100082.91;;;13.25;100.00
54854;BME280;40747;49.480;8.658;2023-05-12T05:39:16;100087.25;;;13.47;100.00
54854;BME280;40747;49.480;8.658;2023-05-12T05:41:41;100086.03;;;13.54;100.00
54854;BME280;40747;49.480;8.658;2023-05-12T05:44:06;100085.97;;;13.56;100.00
54854;BME280;40747;49.480;8.658;2023-05-12T05:46:32;100097.41;;;13.56;100.00
54854;BME280;40747;49.480;8.658;2023-05-12T05:48:57;100097.47;;;13.74;100.00
54854;BME280;40747;49.480;8.658;2023-05-12T05:51:22;100096.56;;;13.92;100.00
54854;BME280;40747;49.480;8.658;2023-05-12T05:53:51;100098.72;;;14.03;100.00
54854;BME280;40747;49.480;8.658;2023-05-12T05:56:16;100099.16;;;13.94;100.00
54854;BME280;40747;49.480;8.658;2023-05-12T05:58:41;100102.84;;;13.72;100.00
54854;BME280;40747;49.480;8.658;2023-05-12T06:01:07;100104.69;;;13.89;100.00
54854;BME280;40747;49.480;8.658;2023-05-12T06:03:32;100107.47;;;13.86;100.00
54854;BME280;40747;49.480;8.658;2023-05-12T06:05:57;100096.41;;;13.59;100.00
54854;BME280;40747;49.480;8.658;2023-05-12T06:08:23;100113.91;;;13.42;100.00
54854;BME280;40747;49.480;8.658;2023-05-12T06:10:48;100111.16;;;13.65;100.00
54854;BME280;40747;49.480;8.658;2023-05-12T06:13:14;100108.22;;;13.71;100.00
54854;BME280;40747;49.480;8.658;2023-05-12T06:15:39;100113.53;;;13.88;100.00
54854;BME280;40747;49.480;8.658;2023-05-12T06:18:05;100121.41;;;13.90;100.00
54854;BME280;40747;49.480;8.658;2023-05-12T06:20:31;100114.78;;;14.00;100.00
54854;BME280;40747;49.480;8.658;2023-05-12T06:22:56;100117.44;;;14.18;100.00
54854;BME280;40747;49.480;8.658;2023-05-12T06:25:21;100122.34;;;14.25;100.00
54854;BME280;40747;49.480;8.658;2023-05-12T06:27:50;100126.34;;;14.34;100.00
54854;BME280;40747;49.480;8.658;2023-05-12T06:30:16;100125.00;;;14.08;100.00
54854;BME280;40747;49.480;8.658;2023-05-12T06:32:41;100121.25;;;14.12;100.00
54854;BME280;40747;49.480;8.658;2023-05-12T06:35:06;100129.84;;;14.17;100.00
54854;BME280;40747;49.480;8.658;2023-05-12T06:37:32;100117.97;;;14.24;100.00
54854;BME280;40747;49.480;8.658;2023-05-12T06:39:57;100132.19;;;14.23;100.00
54854;BME280;40747;49.480;8.658;2023-05-12T06:42:22;100129.66;;;14.20;100.00
54854;BME280;40747;49.480;8.658;2023-05-12T06:44:48;100134.28;;;13.98;100.00
54854;BME280;40747;49.480;8.658;2023-05-12T06:47:13;100139.75;;;13.75;100.00
54854;BME280;40747;49.480;8.658;2023-05-12T06:52:06;100142.53;;;13.91;100.00
54854;BME280;40747;49.480;8.658;2023-05-12T06:54:31;100140.75;;;13.92;100.00
54854;BME280;40747;49.480;8.658;2023-05-12T06:56:56;100138.88;;;13.94;100.00
54854;BME280;40747;49.480;8.658;2023-05-12T06:59:22;100136.59;;;13.86;100.00
54854;BME280;40747;49.480;8.658;2023-05-12T07:01:47;100144.03;;;13.78;100.00
54854;BME280;40747;49.480;8.658;2023-05-12T07:04:12;100136.28;;;13.92;100.00
54854;BME280;40747;49.480;8.658;2023-05-12T07:06:38;100132.81;;;13.73;100.00
54854;BME280;40747;49.480;8.658;2023-05-12T07:09:03;100134.88;;;13.66;100.00
54854;BME280;40747;49.480;8.658;2023-05-12T07:11:29;100122.38;;;13.51;99.48
54854;BME280;40747;49.480;8.658;2023-05-12T07:13:54;100142.94;;;13.63;99.64
54854;BME280;40747;49.480;8.658;2023-05-12T07:16:19;100148.59;;;13.74;98.70
54854;BME280;40747;49.480;8.658;2023-05-12T07:18:45;100133.72;;;13.72;98.83
54854;BME280;40747;49.480;8.658;2023-05-12T07:21:11;100139.97;;;13.71;97.39
54854;BME280;40747;49.480;8.658;2023-05-12T07:23:37;100139.66;;;13.96;99.68
54854;BME280;40747;49.480;8.658;2023-05-12T07:26:04;100144.66;;;14.02;96.64
54854;BME280;40747;49.480;8.658;2023-05-12T07:28:31;100145.84;;;14.14;99.68
54854;BME280;40747;49.480;8.658;2023-05-12T07:30:59;100143.16;;;14.33;99.87
54854;BME280;40747;49.480;8.658;2023-05-12T07:33:25;100146.06;;;14.46;99.08
54854;BME280;40747;49.480;8.658;2023-05-12T07:35:50;100127.84;;;14.40;99.38
54854;BME280;40747;49.480;8.658;2023-05-12T07:38:15;100148.91;;;14.61;98.56
54854;BME280;40747;49.480;8.658;2023-05-12T07:40:41;100142.53;;;14.65;98.47
54854;BME280;40747;49.480;8.658;2023-05-12T07:43:07;100152.53;;;14.77;98.20
54854;BME280;40747;49.480;8.658;2023-05-12T07:45:32;100144.94;;;14.87;100.00
54854;BME280;40747;49.480;8.658;2023-05-12T07:47:57;100136.84;;;14.90;99.26
54854;BME280;40747;49.480;8.658;2023-05-12T07:50:23;100126.47;;;14.85;97.59
54854;BME280;40747;49.480;8.658;2023-05-12T07:52:50;100137.16;;;15.01;99.26
54854;BME280;40747;49.480;8.658;2023-05-12T07:55:18;100142.06;;;14.91;95.67
54854;BME280;40747;49.480;8.658;2023-05-12T07:57:44;100139.72;;;14.85;95.24
54854;BME280;40747;49.480;8.658;2023-05-12T08:00:10;100126.09;;;14.21;95.51
54854;BME280;40747;49.480;8.658;2023-05-12T08:02:36;100142.03;;;14.39;96.83
54854;BME280;40747;49.480;8.658;2023-05-12T08:05:02;100135.78;;;14.40;94.51
54854;BME280;40747;49.480;8.658;2023-05-12T08:07:28;100133.63;;;14.83;97.53
54854;BME280;40747;49.480;8.658;2023-05-12T08:09:53;100131.84;;;15.01;95.19
54854;BME280;40747;49.480;8.658;2023-05-12T08:12:20;100142.13;;;15.07;92.88
54854;BME280;40747;49.480;8.658;2023-05-12T08:14:45;100134.84;;;15.11;91.11
54854;BME280;40747;49.480;8.658;2023-05-12T08:17:11;100139.19;;;14.79;92.69
54854;BME280;40747;49.480;8.658;2023-05-12T08:19:36;100136.34;;;14.47;92.59
54854;BME280;40747;49.480;8.658;2023-05-12T08:22:01;100142.06;;;14.91;92.64
54854;BME280;40747;49.480;8.658;2023-05-12T08:24:27;100136.59;;;14.95;91.68
54854;BME280;40747;49.480;8.658;2023-05-12T08:26:52;100140.56;;;14.86;91.28
54854;BME280;40747;49.480;8.658;2023-05-12T08:29:17;100140.94;;;15.13;93.94
54854;BME280;40747;49.480;8.658;2023-05-12T08:31:43;100126.78;;;14.97;91.44
54854;BME280;40747;49.480;8.658;2023-05-12T08:34:08;100136.09;;;15.21;91.92
54854;BME280;40747;49.480;8.658;2023-05-12T08:36:34;100139.56;;;14.88;91.24
54854;BME280;40747;49.480;8.658;2023-05-12T08:39:00;100142.06;;;15.09;90.24
54854;BME280;40747;49.480;8.658;2023-05-12T08:41:42;100142.38;;;15.52;92.00
54854;BME280;40747;49.480;8.658;2023-05-12T08:44:10;100132.53;;;15.38;90.85
54854;BME280;40747;49.480;8.658;2023-05-12T08:46:36;100136.25;;;15.52;91.78
54854;BME280;40747;49.480;8.658;2023-05-12T08:49:02;100139.25;;;15.62;91.84
54854;BME280;40747;49.480;8.658;2023-05-12T08:51:30;100141.91;;;15.78;90.93
54854;BME280;40747;49.480;8.658;2023-05-12T08:53:56;100138.56;;;15.74;88.88
54854;BME280;40747;49.480;8.658;2023-05-12T08:56:21;100139.47;;;15.91;89.66
54854;BME280;40747;49.480;8.658;2023-05-12T08:58:48;100141.69;;;15.33;88.98
54854;BME280;40747;49.480;8.658;2023-05-12T09:01:15;100146.97;;;15.33;88.84
54854;BME280;40747;49.480;8.658;2023-05-12T09:03:41;100154.72;;;15.53;89.08
54854;BME280;40747;49.480;8.658;2023-05-12T09:06:07;100116.16;;;15.30;87.94
54854;BME280;40747;49.480;8.658;2023-05-12T09:08:33;100126.66;;;15.49;88.11
54854;BME280;40747;49.480;8.658;2023-05-12T09:11:03;100158.41;;;16.00;90.79
54854;BME280;40747;49.480;8.658;2023-05-12T09:13:47;100149.06;;;16.09;87.37
54854;BME280;40747;49.480;8.658;2023-05-12T09:16:17;100142.88;;;16.25;86.22
54854;BME280;40747;49.480;8.658;2023-05-12T09:18:49;100149.03;;;16.41;85.24
54854;BME280;40747;49.480;8.658;2023-05-12T09:21:15;100151.88;;;16.06;83.64
54854;BME280;40747;49.480;8.658;2023-05-12T09:23:51;100153.09;;;16.00;83.24
54854;BME280;40747;49.480;8.658;2023-05-12T09:26:16;100147.22;;;15.62;85.84
54854;BME280;40747;49.480;8.658;2023-05-12T09:28:42;100153.78;;;15.88;87.07
54854;BME280;40747;49.480;8.658;2023-05-12T09:31:18;100147.88;;;15.99;84.77
54854;BME280;40747;49.480;8.658;2023-05-12T09:33:45;100143.13;;;16.36;85.24
54854;BME280;40747;49.480;8.658;2023-05-12T09:36:11;100148.38;;;16.05;84.16
54854;BME280;40747;49.480;8.658;2023-05-12T09:38:40;100133.97;;;16.26;83.79
54854;BME280;40747;49.480;8.658;2023-05-12T09:41:05;100141.53;;;16.48;83.51
54854;BME280;40747;49.480;8.658;2023-05-12T09:43:31;100132.09;;;16.58;81.66
54854;BME280;40747;49.480;8.658;2023-05-12T09:45:56;100140.03;;;16.88;80.89
54854;BME280;40747;49.480;8.658;2023-05-12T09:48:21;100145.59;;;16.69;81.33
54854;BME280;40747;49.480;8.658;2023-05-12T09:50:49;100144.38;;;17.06;80.88
54854;BME280;40747;49.480;8.658;2023-05-12T09:53:15;100141.13;;;17.00;81.60
54854;BME280;40747;49.480;8.658;2023-05-12T09:55:42;100139.72;;;16.79;78.62
54854;BME280;40747;49.480;8.658;2023-05-12T09:58:09;100140.38;;;16.68;79.75
54854;BME280;40747;49.480;8.658;2023-05-12T10:00:36;100139.66;;;16.50;80.27
54854;BME280;40747;49.480;8.658;2023-05-12T10:03:15;100135.28;;;15.86;80.96
54854;BME280;40747;49.480;8.658;2023-05-12T10:05:59;100147.09;;;15.97;80.83
54854;BME280;40747;49.480;8.658;2023-05-12T10:08:30;100144.69;;;16.08;81.35
54854;BME280;40747;49.480;8.658;2023-05-12T10:10:58;100144.41;;;16.29;80.86
54854;BME280;40747;49.480;8.658;2023-05-12T10:13:24;100136.13;;;16.03;80.94
54854;BME280;40747;49.480;8.658;2023-05-12T10:15:51;100136.44;;;16.29;80.80
54854;BME280;40747;49.480;8.658;2023-05-12T10:18:19;100136.69;;;16.40;81.15
54854;BME280;40747;49.480;8.658;2023-05-12T10:20:46;100133.16;;;16.40;81.78
54854;BME280;40747;49.480;8.658;2023-05-12T10:23:12;100141.31;;;16.36;81.64
54854;BME280;40747;49.480;8.658;2023-05-12T10:25:39;100145.72;;;16.05;82.46
54854;BME280;40747;49.480;8.658;2023-05-12T10:28:05;100150.31;;;15.70;82.98
54854;BME280;40747;49.480;8.658;2023-05-12T10:30:31;100142.38;;;15.52;83.03
54854;BME280;40747;49.480;8.658;2023-05-12T10:32:57;100154.31;;;15.95;82.91
54854;BME280;40747;49.480;8.658;2023-05-12T10:35:31;100143.44;;;15.66;81.11
54854;BME280;40747;49.480;8.658;2023-05-12T10:38:15;100150.59;;;15.81;82.65
54854;BME280;40747;49.480;8.658;2023-05-12T10:40:52;100145.41;;;15.46;82.22
54854;BME280;40747;49.480;8.658;2023-05-12T10:43:29;100137.91;;;15.37;82.83
54854;BME280;40747;49.480;8.658;2023-05-12T10:48:36;100136.75;;;15.43;82.78
54854;BME280;40747;49.480;8.658;2023-05-12T10:51:07;100138.97;;;15.50;83.78
54854;BME280;40747;49.480;8.658;2023-05-12T10:53:33;100135.59;;;15.64;81.59
54854;BME280;40747;49.480;8.658;2023-05-12T10:56:02;100136.94;;;15.71;81.49
54854;BME280;40747;49.480;8.658;2023-05-12T10:58:28;100130.56;;;15.92;83.05
54854;BME280;40747;49.480;8.658;2023-05-12T11:00:53;100134.22;;;16.21;82.16
54854;BME280;40747;49.480;8.658;2023-05-12T11:03:22;100130.88;;;16.64;80.08
54854;BME280;40747;49.480;8.658;2023-05-12T11:06:04;100130.22;;;17.05;78.89
54854;BME280;40747;49.480;8.658;2023-05-12T11:08:31;100139.53;;;16.98;77.29
54854;BME280;40747;49.480;8.658;2023-05-12T11:10:59;100131.75;;;17.09;78.06
54854;BME280;40747;49.480;8.658;2023-05-12T11:13:24;100123.09;;;17.49;76.80
54854;BME280;40747;49.480;8.658;2023-05-12T11:15:50;100134.50;;;17.51;76.92
54854;BME280;40747;49.480;8.658;2023-05-12T11:18:22;100126.06;;;17.86;75.68
54854;BME280;40747;49.480;8.658;2023-05-12T11:20:48;100116.88;;;17.77;75.50
54854;BME280;40747;49.480;8.658;2023-05-12T11:23:27;100120.09;;;17.97;73.52
54854;BME280;40747;49.480;8.658;2023-05-12T11:25:54;100128.75;;;17.86;71.86
54854;BME280;40747;49.480;8.658;2023-05-12T11:28:19;100126.03;;;17.59;73.09
54854;BME280;40747;49.480;8.658;2023-05-12T11:30:49;100135.34;;;17.66;75.79
54854;BME280;40747;49.480;8.658;2023-05-12T11:33:19;100131.00;;;17.36;74.52
54854;BME280;40747;49.480;8.658;2023-05-12T11:35:45;100132.09;;;17.61;74.67
54854;BME280;40747;49.480;8.658;2023-05-12T11:38:17;100126.22;;;17.56;74.79
54854;BME280;40747;49.480;8.658;2023-05-12T11:40:43;100138.59;;;17.42;74.05
54854;BME280;40747;49.480;8.658;2023-05-12T11:43:09;100131.09;;;17.49;75.25
54854;BME280;40747;49.480;8.658;2023-05-12T11:45:35;100130.69;;;17.55;73.67
54854;BME280;40747;49.480;8.658;2023-05-12T11:48:11;100131.72;;;17.67;73.52
54854;BME280;40747;49.480;8.658;2023-05-12T11:50:39;100137.88;;;18.11;75.47
54854;BME280;40747;49.480;8.658;2023-05-12T11:53:11;100139.31;;;18.70;77.32
54854;BME280;40747;49.480;8.658;2023-05-12T11:55:49;100135.69;;;18.83;71.81
54854;BME280;40747;49.480;8.658;2023-05-12T11:58:23;100144.66;;;18.70;68.20
54854;BME280;40747;49.480;8.658;2023-05-12T12:00:55;100140.16;;;18.70;71.37
54854;BME280;40747;49.480;8.658;2023-05-12T12:03:22;100144.97;;;18.78;70.09
54854;BME280;40747;49.480;8.658;2023-05-12T12:06:02;100149.22;;;18.00;70.58
54854;BME280;40747;49.480;8.658;2023-05-12T12:08:28;100146.97;;;17.65;72.27
54854;BME280;40747;49.480;8.658;2023-05-12T12:10:53;100153.06;;;17.38;71.85
54854;BME280;40747;49.480;8.658;2023-05-12T12:13:24;100155.91;;;17.20;72.92
54854;BME280;40747;49.480;8.658;2023-05-12T12:15:50;100163.09;;;17.04;73.40
54854;BME280;40747;49.480;8.658;2023-05-12T12:18:16;100155.13;;;17.04;74.36
54854;BME280;40747;49.480;8.658;2023-05-12T12:20:42;100161.78;;;17.11;72.93
54854;BME280;40747;49.480;8.658;2023-05-12T12:23:08;100168.16;;;17.38;73.33
54854;BME280;40747;49.480;8.658;2023-05-12T12:25:33;100160.25;;;17.79;74.00
54854;BME280;40747;49.480;8.658;2023-05-12T12:27:59;100167.63;;;18.17;72.24
54854;BME280;40747;49.480;8.658;2023-05-12T12:30:24;100155.72;;;18.50;70.90
54854;BME280;40747;49.480;8.658;2023-05-12T12:32:50;100158.88;;;18.83;70.39
54854;BME280;40747;49.480;8.658;2023-05-12T12:35:15;100162.47;;;18.29;69.61
54854;BME280;40747;49.480;8.658;2023-05-12T12:37:41;100173.22;;;17.57;72.08
54854;BME280;40747;49.480;8.658;2023-05-12T12:40:07;100175.88;;;17.28;72.83
54854;BME280;40747;49.480;8.658;2023-05-12T12:42:34;100174.72;;;17.17;73.45
54854;BME280;40747;49.480;8.658;2023-05-12T12:45:00;100185.09;;;17.36;73.21
54854;BME280;40747;49.480;8.658;2023-05-12T12:47:25;100177.31;;;17.62;72.90